sensor_id;sensor_type;location;lat;lon;timestamp;pressure;altitude;pressure_sealevel;temperature;humidity
56142;BME280;42018;48.588;10.836;2023-09-08T00:00:40;97071.28;;;18.19;63.56
56142;BME280;42018;48.588;10.836;2023-09-08T00:03:26;97070.44;;;18.10;64.27
56142;BME280;42018;48.588;10.836;2023-09-08T00:06:11;97066.97;;;18.09;63.99
56142;BME280;42018;48.588;10.836;2023-09-08T00:08:56;97063.81;;;18.07;64.08
56142;BME280;42018;48.588;10.836;2023-09-08T00:11:46;97066.28;;;18.26;63.31
56142;BME280;42018;48.588;10.836;2023-09-08T00:14:45;97071.53;;;18.09;63.29
56142;BME280;42018;48.588;10.836;2023-09-08T00:17:36;97066.53;;;18.16;62.93
56142;BME280;42018;48.588;10.836;2023-09-08T00:20:21;97062.69;;;18.08;63.98
56142;BME280;42018;48.588;10.836;2023-09-08T00:23:07;97066.91;;;18.01;64.61
56142;BME280;42018;48.588;10.836;2023-09-08T00:25:55;97070.63;;;17.91;64.71
56142;BME280;42018;48.588;10.836;2023-09-08T00:28:40;97060.59;;;17.97;64.43
56142;BME280;42018;48.588;10.836;2023-09-08T00:31:30;97068.16;;;18.03;63.48
56142;BME280;42018;48.588;10.836;2023-09-08T00:34:29;97058.63;;;17.88;63.15
56142;BME280;42018;48.588;10.836;2023-09-08T00:37:33;97057.66;;;17.70;63.79
56142;BME280;42018;48.588;10.836;2023-09-08T00:51:32;97049.69;;;17.43;64.60
56142;BME280;42018;48.588;10.836;2023-09-08T00:54:18;97055.38;;;17.41;64.60
56142;BME280;42018;48.588;10.836;2023-09-08T00:57:15;97048.72;;;17.39;64.58
56142;BME280;42018;48.588;10.836;2023-09-08T01:00:01;97051.09;;;17.40;64.52
56142;BME280;42018;48.588;10.836;2023-09-08T01:02:55;97051.72;;;17.37;64.55
56142;BME280;42018;48.588;10.836;2023-09-08T01:06:14;97056.59;;;17.21;64.27
56142;BME280;42018;48.588;10.836;2023-09-08T01:09:17;97053.22;;;17.30;64.98
56142;BME280;42018;48.588;10.836;2023-09-08T01:12:40;97064.22;;;17.14;64.52
56142;BME280;42018;48.588;10.836;2023-09-08T01:15:25;97060.47;;;17.15;65.01
56142;BME280;42018;48.588;10.836;2023-09-08T01:22:41;97053.81;;;17.13;63.83
56142;BME280;42018;48.588;10.836;2023-09-08T01:26:04;97055.13;;;17.02;64.29
56142;BME280;42018;48.588;10.836;2023-09-08T01:32:48;97050.78;;;16.92;65.29
56142;BME280;42018;48.588;10.836;2023-09-08T01:35:35;97041.03;;;16.96;65.24
56142;BME280;42018;48.588;10.836;2023-09-08T01:38:33;97037.50;;;17.01;64.16
56142;BME280;42018;48.588;10.836;2023-09-08T01:41:18;97030.25;;;17.15;64.29
56142;BME280;42018;48.588;10.836;2023-09-08T01:47:34;97045.22;;;17.02;64.36
56142;BME280;42018;48.588;10.836;2023-09-08T02:31:37;97026.16;;;16.62;65.22
56142;BME280;42018;48.588;10.836;2023-09-08T02:38:21;97039.72;;;16.52;65.40
56142;BME280;42018;48.588;10.836;2023-09-08T02:41:13;97034.78;;;16.59;64.89
56142;BME280;42018;48.588;10.836;2023-09-08T02:47:35;97040.63;;;16.47;65.70
56142;BME280;42018;48.588;10.836;2023-09-08T03:01:42;97041.59;;;16.38;65.36
56142;BME280;42018;48.588;10.836;2023-09-08T03:19:50;97035.44;;;16.23;64.82
56142;BME280;42018;48.588;10.836;2023-09-08T03:26:35;97029.88;;;16.20;64.64
56142;BME280;42018;48.588;10.836;2023-09-08T03:29:20;97037.69;;;16.16;65.17
56142;BME280;42018;48.588;10.836;2023-09-08T03:32:05;97043.53;;;16.18;65.42
56142;BME280;42018;48.588;10.836;2023-09-08T03:34:51;97043.94;;;16.12;65.55
56142;BME280;42018;48.588;10.836;2023-09-08T03:37:36;97044.88;;;16.02;66.16
56142;BME280;42018;48.588;10.836;2023-09-08T03:40:21;97038.91;;;15.91;66.49
56142;BME280;42018;48.588;10.836;2023-09-08T03:43:07;97038.16;;;16.04;66.19
56142;BME280;42018;48.588;10.836;2023-09-08T03:45:52;97046.84;;;15.96;66.06
56142;BME280;42018;48.588;10.836;2023-09-08T03:48:37;97034.97;;;16.02;65.21
56142;BME280;42018;48.588;10.836;2023-09-08T03:51:23;97035.78;;;16.03;64.84
56142;BME280;42018;48.588;10.836;2023-09-08T03:54:08;97028.84;;;16.02;64.99
56142;BME280;42018;48.588;10.836;2023-09-08T03:56:53;97025.66;;;16.00;64.50
56142;BME280;42018;48.588;10.836;2023-09-08T03:59:39;97031.91;;;15.95;65.14
56142;BME280;42018;48.588;10.836;2023-09-08T04:02:24;97025.81;;;15.90;65.55
56142;BME280;42018;48.588;10.836;2023-09-08T04:05:10;97030.31;;;15.94;65.07
56142;BME280;42018;48.588;10.836;2023-09-08T04:07:55;97028.06;;;15.83;65.38
56142;BME280;42018;48.588;10.836;2023-09-08T04:10:41;97033.97;;;15.66;66.02
56142;BME280;42018;48.588;10.836;2023-09-08T04:13:26;97028.88;;;15.64;66.10
56142;BME280;42018;48.588;10.836;2023-09-08T04:16:11;97039.34;;;15.61;65.83
56142;BME280;42018;48.588;10.836;2023-09-08T04:18:57;97040.28;;;15.51;66.60
56142;BME280;42018;48.588;10.836;2023-09-08T04:21:42;97035.97;;;15.55;66.71
56142;BME280;42018;48.588;10.836;2023-09-08T04:24:27;97045.34;;;15.52;66.46
56142;BME280;42018;48.588;10.836;2023-09-08T04:27:13;97038.13;;;15.53;66.66
56142;BME280;42018;48.588;10.836;2023-09-08T04:29:58;97050.81;;;15.42;66.79
56142;BME280;42018;48.588;10.836;2023-09-08T04:32:44;97047.41;;;15.37;66.78
56142;BME280;42018;48.588;10.836;2023-09-08T04:35:29;97049.09;;;15.51;66.56
56142;BME280;42018;48.588;10.836;2023-09-08T04:38:15;97043.56;;;15.48;66.76
56142;BME280;42018;48.588;10.836;2023-09-08T04:41:00;97041.03;;;15.38;67.18
56142;BME280;42018;48.588;10.836;2023-09-08T04:43:45;97048.94;;;15.43;66.80
56142;BME280;42018;48.588;10.836;2023-09-08T04:46:31;97049.91;;;15.52;66.31
56142;BME280;42018;48.588;10.836;2023-09-08T04:49:16;97050.53;;;15.44;66.57
56142;BME280;42018;48.588;10.836;2023-09-08T04:52:01;97053.41;;;15.47;66.35
56142;BME280;42018;48.588;10.836;2023-09-08T04:54:47;97056.91;;;15.48;66.61
56142;BME280;42018;48.588;10.836;2023-09-08T04:57:32;97064.81;;;15.53;66.36
56142;BME280;42018;48.588;10.836;2023-09-08T05:00:18;97059.56;;;15.48;66.55
56142;BME280;42018;48.588;10.836;2023-09-08T05:03:03;97061.22;;;15.44;66.92
56142;BME280;42018;48.588;10.836;2023-09-08T05:05:48;97066.53;;;15.44;67.09
56142;BME280;42018;48.588;10.836;2023-09-08T05:08:34;97064.63;;;15.49;67.25
56142;BME280;42018;48.588;10.836;2023-09-08T05:11:19;97069.59;;;15.56;66.98
56142;BME280;42018;48.588;10.836;2023-09-08T05:14:04;97064.31;;;15.51;66.88
56142;BME280;42018;48.588;10.836;2023-09-08T05:16:50;97062.81;;;15.45;67.02
56142;BME280;42018;48.588;10.836;2023-09-08T05:19:40;97064.00;;;15.15;68.40
56142;BME280;42018;48.588;10.836;2023-09-08T05:22:25;97059.81;;;15.08;68.86
56142;BME280;42018;48.588;10.836;2023-09-08T05:25:11;97059.28;;;15.30;67.97
56142;BME280;42018;48.588;10.836;2023-09-08T05:27:56;97064.09;;;15.28;68.10
56142;BME280;42018;48.588;10.836;2023-09-08T05:30:42;97067.94;;;15.41;67.77
56142;BME280;42018;48.588;10.836;2023-09-08T05:33:27;97067.16;;;15.41;67.91
56142;BME280;42018;48.588;10.836;2023-09-08T05:36:12;97065.63;;;15.35;68.80
56142;BME280;42018;48.588;10.836;2023-09-08T05:38:58;97073.94;;;15.52;68.10
56142;BME280;42018;48.588;10.836;2023-09-08T05:41:43;97076.94;;;15.64;67.88
56142;BME280;42018;48.588;10.836;2023-09-08T05:44:29;97069.13;;;15.73;67.78
56142;BME280;42018;48.588;10.836;2023-09-08T05:47:14;97075.69;;;15.80;67.63
56142;BME280;42018;48.588;10.836;2023-09-08T05:49:59;97074.00;;;15.85;67.59
56142;BME280;42018;48.588;10.836;2023-09-08T05:52:45;97078.69;;;15.93;68.00
56142;BME280;42018;48.588;10.836;2023-09-08T05:55:30;97076.53;;;15.95;68.01
56142;BME280;42018;48.588;10.836;2023-09-08T05:58:15;97074.88;;;15.99;68.01
56142;BME280;42018;48.588;10.836;2023-09-08T06:01:02;97072.19;;;15.99;68.46
56142;BME280;42018;48.588;10.836;2023-09-08T06:03:47;97078.47;;;16.08;67.94
56142;BME280;42018;48.588;10.836;2023-09-08T06:06:33;97079.94;;;16.14;68.37
56142;BME280;42018;48.588;10.836;2023-09-08T06:09:18;97087.41;;;16.17;68.49
56142;BME280;42018;48.588;10.836;2023-09-08T06:12:04;97086.81;;;16.20;68.14
56142;BME280;42018;48.588;10.836;2023-09-08T06:14:50;97091.47;;;16.28;67.67
56142;BME280;42018;48.588;10.836;2023-09-08T06:17:35;97091.19;;;16.30;68.73
56142;BME280;42018;48.588;10.836;2023-09-08T06:20:20;97092.78;;;16.31;68.96
56142;BME280;42018;48.588;10.836;2023-09-08T06:23:06;97100.13;;;16.39;69.99
56142;BME280;42018;48.588;10.836;2023-09-08T06:25:56;97091.53;;;16.42;69.54
56142;BME280;42018;48.588;10.836;2023-09-08T06:29:06;97096.28;;;16.45;70.01
56142;BME280;42018;48.588;10.836;2023-09-08T06:35:40;97082.03;;;16.64;68.75
56142;BME280;42018;48.588;10.836;2023-09-08T06:42:13;97091.41;;;16.80;67.85
56142;BME280;42018;48.588;10.836;2023-09-08T06:45:12;97091.81;;;16.87;68.30
56142;BME280;42018;48.588;10.836;2023-09-08T06:47:58;97089.34;;;16.91;68.74
56142;BME280;42018;48.588;10.836;2023-09-08T06:50:45;97088.44;;;16.95;70.19
56142;BME280;42018;48.588;10.836;2023-09-08T06:53:30;97092.63;;;17.02;69.96
56142;BME280;42018;48.588;10.836;2023-09-08T06:56:30;97096.28;;;17.06;69.54
56142;BME280;42018;48.588;10.836;2023-09-08T07:03:15;97099.53;;;17.03;70.70
56142;BME280;42018;48.588;10.836;2023-09-08T07:09:42;97095.56;;;17.28;71.09
56142;BME280;42018;48.588;10.836;2023-09-08T07:16:11;97099.00;;;17.42;71.61
56142;BME280;42018;48.588;10.836;2023-09-08T07:26:20;97102.47;;;17.56;71.23
56142;BME280;42018;48.588;10.836;2023-09-08T07:29:05;97099.88;;;17.79;70.69
56142;BME280;42018;48.588;10.836;2023-09-08T07:31:50;97099.97;;;17.96;71.51
56142;BME280;42018;48.588;10.836;2023-09-08T07:34:36;97102.75;;;18.05;70.69
56142;BME280;42018;48.588;10.836;2023-09-08T07:37:23;97098.72;;;18.16;69.97
56142;BME280;42018;48.588;10.836;2023-09-08T07:43:51;97090.91;;;18.28;69.02
56142;BME280;42018;48.588;10.836;2023-09-08T07:46:50;97091.97;;;18.50;67.94
56142;BME280;42018;48.588;10.836;2023-09-08T07:49:36;97091.28;;;18.66;67.24
56142;BME280;42018;48.588;10.836;2023-09-08T07:52:22;97090.41;;;18.80;67.46
56142;BME280;42018;48.588;10.836;2023-09-08T07:55:07;97086.84;;;18.93;66.37
56142;BME280;42018;48.588;10.836;2023-09-08T07:57:53;97083.72;;;19.08;65.41
56142;BME280;42018;48.588;10.836;2023-09-08T08:00:39;97086.09;;;19.10;64.38
56142;BME280;42018;48.588;10.836;2023-09-08T08:03:24;97083.56;;;19.13;64.37
56142;BME280;42018;48.588;10.836;2023-09-08T08:06:09;97081.84;;;19.09;65.70
56142;BME280;42018;48.588;10.836;2023-09-08T08:08:55;97086.13;;;19.27;66.01
56142;BME280;42018;48.588;10.836;2023-09-08T08:11:41;97087.13;;;19.40;64.65
56142;BME280;42018;48.588;10.836;2023-09-08T08:14:26;97089.53;;;19.50;63.99
56142;BME280;42018;48.588;10.836;2023-09-08T08:17:12;97094.09;;;19.58;64.09
56142;BME280;42018;48.588;10.836;2023-09-08T08:19:57;97081.94;;;19.61;64.23
56142;BME280;42018;48.588;10.836;2023-09-08T08:23:06;97083.53;;;19.88;64.61
56142;BME280;42018;48.588;10.836;2023-09-08T08:25:52;97088.28;;;20.08;62.20
56142;BME280;42018;48.588;10.836;2023-09-08T08:28:38;97084.97;;;20.12;63.20
56142;BME280;42018;48.588;10.836;2023-09-08T08:31:23;97081.28;;;20.33;62.89
56142;BME280;42018;48.588;10.836;2023-09-08T08:34:09;97078.88;;;20.41;61.82
56142;BME280;42018;48.588;10.836;2023-09-08T08:36:54;97081.09;;;20.47;63.13
56142;BME280;42018;48.588;10.836;2023-09-08T08:39:40;97080.16;;;20.34;61.57
56142;BME280;42018;48.588;10.836;2023-09-08T08:42:31;97076.06;;;20.37;61.13
56142;BME280;42018;48.588;10.836;2023-09-08T08:45:18;97070.94;;;20.62;61.50
56142;BME280;42018;48.588;10.836;2023-09-08T08:48:07;97071.34;;;20.81;60.83
56142;BME280;42018;48.588;10.836;2023-09-08T08:50:53;97070.34;;;20.94;59.97
56142;BME280;42018;48.588;10.836;2023-09-08T08:53:39;97076.16;;;21.05;59.11
56142;BME280;42018;48.588;10.836;2023-09-08T08:56:25;97073.44;;;21.14;58.68
56142;BME280;42018;48.588;10.836;2023-09-08T08:59:10;97074.94;;;21.23;59.41
56142;BME280;42018;48.588;10.836;2023-09-08T09:01:58;97066.41;;;21.21;57.72
56142;BME280;42018;48.588;10.836;2023-09-08T09:04:43;97072.06;;;21.28;57.45
56142;BME280;42018;48.588;10.836;2023-09-08T09:07:30;97064.50;;;21.22;58.28
56142;BME280;42018;48.588;10.836;2023-09-08T09:10:17;97065.06;;;21.36;60.03
56142;BME280;42018;48.588;10.836;2023-09-08T09:13:02;97063.91;;;21.67;59.69
56142;BME280;42018;48.588;10.836;2023-09-08T09:15:49;97067.41;;;21.88;58.11
56142;BME280;42018;48.588;10.836;2023-09-08T09:19:00;97061.53;;;21.86;57.19
56142;BME280;42018;48.588;10.836;2023-09-08T09:21:47;97065.25;;;21.94;56.02
56142;BME280;42018;48.588;10.836;2023-09-08T09:27:21;97064.88;;;22.37;56.14
56142;BME280;42018;48.588;10.836;2023-09-08T09:30:07;97063.34;;;22.49;56.32
56142;BME280;42018;48.588;10.836;2023-09-08T09:33:04;97067.38;;;22.55;56.78
56142;BME280;42018;48.588;10.836;2023-09-08T09:35:50;97055.56;;;22.47;54.16
56142;BME280;42018;48.588;10.836;2023-09-08T09:38:36;97065.75;;;22.75;55.26
56142;BME280;42018;48.588;10.836;2023-09-08T09:41:22;97059.78;;;22.81;53.92
56142;BME280;42018;48.588;10.836;2023-09-08T09:44:08;97052.69;;;22.89;54.96
56142;BME280;42018;48.588;10.836;2023-09-08T09:46:54;97047.63;;;23.24;52.59
56142;BME280;42018;48.588;10.836;2023-09-08T09:49:44;97057.09;;;23.30;53.72
56142;BME280;42018;48.588;10.836;2023-09-08T09:52:29;97057.75;;;23.52;52.91
56142;BME280;42018;48.588;10.836;2023-09-08T09:55:17;97050.22;;;23.85;53.66
56142;BME280;42018;48.588;10.836;2023-09-08T09:58:03;97045.69;;;24.18;51.84
56142;BME280;42018;48.588;10.836;2023-09-08T10:00:49;97043.63;;;24.27;50.58
56142;BME280;42018;48.588;10.836;2023-09-08T10:03:35;97044.28;;;24.52;51.10
56142;BME280;42018;48.588;10.836;2023-09-08T10:06:21;97043.59;;;24.71;50.34
56142;BME280;42018;48.588;10.836;2023-09-08T10:09:08;97039.13;;;24.78;49.08
56142;BME280;42018;48.588;10.836;2023-09-08T10:12:04;97036.34;;;24.59;48.66
56142;BME280;42018;48.588;10.836;2023-09-08T10:14:51;97038.34;;;24.78;49.49
56142;BME280;42018;48.588;10.836;2023-09-08T10:17:40;97037.28;;;24.82;49.02
56142;BME280;42018;48.588;10.836;2023-09-08T10:20:27;97040.06;;;25.02;49.99
56142;BME280;42018;48.588;10.836;2023-09-08T10:23:23;97036.66;;;25.05;49.03
56142;BME280;42018;48.588;10.836;2023-09-08T10:26:10;97043.88;;;25.32;49.22
56142;BME280;42018;48.588;10.836;2023-09-08T10:28:56;97035.72;;;25.48;48.82
56142;BME280;42018;48.588;10.836;2023-09-08T10:31:43;97030.13;;;25.61;49.16
56142;BME280;42018;48.588;10.836;2023-09-08T10:34:30;97035.94;;;25.78;47.88
56142;BME280;42018;48.588;10.836;2023-09-08T10:37:26;97033.75;;;25.84;46.89
56142;BME280;42018;48.588;10.836;2023-09-08T10:40:25;97027.00;;;25.78;46.57
56142;BME280;42018;48.588;10.836;2023-09-08T10:43:13;97031.66;;;25.97;47.89
56142;BME280;42018;48.588;10.836;2023-09-08T10:45:58;97028.22;;;26.19;45.79
56142;BME280;42018;48.588;10.836;2023-09-08T10:48:43;97030.34;;;25.87;46.72
56142;BME280;42018;48.588;10.836;2023-09-08T10:51:29;97028.28;;;25.65;46.21
56142;BME280;42018;48.588;10.836;2023-09-08T10:54:40;97026.59;;;25.95;46.87
56142;BME280;42018;48.588;10.836;2023-09-08T10:57:26;97019.75;;;26.24;46.30
56142;BME280;42018;48.588;10.836;2023-09-08T11:00:17;97021.09;;;26.34;47.87
56142;BME280;42018;48.588;10.836;2023-09-08T11:03:03;97019.63;;;26.17;46.03
56142;BME280;42018;48.588;10.836;2023-09-08T11:05:49;97028.22;;;26.62;46.80
56142;BME280;42018;48.588;10.836;2023-09-08T11:08:38;97019.19;;;26.81;45.84
56142;BME280;42018;48.588;10.836;2023-09-08T11:11:24;97017.69;;;26.83;44.88
56142;BME280;42018;48.588;10.836;2023-09-08T11:14:10;97019.97;;;26.81;46.17
56142;BME280;42018;48.588;10.836;2023-09-08T11:16:57;97017.13;;;26.97;45.70
56142;BME280;42018;48.588;10.836;2023-09-08T11:19:47;97019.31;;;27.14;45.44
56142;BME280;42018;48.588;10.836;2023-09-08T11:22:34;97019.84;;;27.24;46.00
56142;BME280;42018;48.588;10.836;2023-09-08T11:25:20;97016.72;;;27.21;44.52
56142;BME280;42018;48.588;10.836;2023-09-08T11:28:05;97026.31;;;27.42;44.27
56142;BME280;42018;48.588;10.836;2023-09-08T11:30:51;97017.81;;;27.43;44.29
56142;BME280;42018;48.588;10.836;2023-09-08T11:33:36;97020.97;;;27.49;43.97
56142;BME280;42018;48.588;10.836;2023-09-08T11:36:25;97025.38;;;27.57;42.92
56142;BME280;42018;48.588;10.836;2023-09-08T11:39:10;97022.66;;;27.57;43.70
56142;BME280;42018;48.588;10.836;2023-09-08T11:41:55;97014.41;;;27.24;43.96
56142;BME280;42018;48.588;10.836;2023-09-08T11:44:41;97020.16;;;27.45;44.01
56142;BME280;42018;48.588;10.836;2023-09-08T11:47:27;97024.94;;;27.55;43.83
56142;BME280;42018;48.588;10.836;2023-09-08T11:50:13;97019.84;;;27.80;43.71
56142;BME280;42018;48.588;10.836;2023-09-08T11:53:00;97015.81;;;28.01;42.32
56142;BME280;42018;48.588;10.836;2023-09-08T11:55:48;97012.47;;;28.18;43.09
56142;BME280;42018;48.588;10.836;2023-09-08T11:58:34;97005.78;;;28.49;43.07
56142;BME280;42018;48.588;10.836;2023-09-08T12:01:20;97006.91;;;28.45;43.55
56142;BME280;42018;48.588;10.836;2023-09-08T12:04:05;97005.72;;;28.42;43.24
56142;BME280;42018;48.588;10.836;2023-09-08T12:06:54;97007.19;;;28.77;41.85
56142;BME280;42018;48.588;10.836;2023-09-08T12:09:42;97011.66;;;28.99;41.93
56142;BME280;42018;48.588;10.836;2023-09-08T12:12:28;96999.81;;;28.84;41.41
56142;BME280;42018;48.588;10.836;2023-09-08T12:18:17;97003.38;;;28.92;41.29
56142;BME280;42018;48.588;10.836;2023-09-08T12:21:04;97004.47;;;29.35;41.28
56142;BME280;42018;48.588;10.836;2023-09-08T12:23:53;97002.59;;;29.47;40.19
56142;BME280;42018;48.588;10.836;2023-09-08T12:26:38;96997.00;;;29.22;40.15
56142;BME280;42018;48.588;10.836;2023-09-08T12:29:24;96994.53;;;29.02;40.16
56142;BME280;42018;48.588;10.836;2023-09-08T12:32:13;96990.78;;;29.25;40.89
56142;BME280;42018;48.588;10.836;2023-09-08T12:34:59;96989.28;;;29.45;42.48
56142;BME280;42018;48.588;10.836;2023-09-08T12:37:46;96991.44;;;29.84;39.99
56142;BME280;42018;48.588;10.836;2023-09-08T12:40:36;96980.09;;;29.71;40.14
56142;BME280;42018;48.588;10.836;2023-09-08T12:43:22;96987.59;;;29.96;39.21
56142;BME280;42018;48.588;10.836;2023-09-08T12:46:07;96985.72;;;30.32;39.56
56142;BME280;42018;48.588;10.836;2023-09-08T12:48:53;96979.06;;;30.26;39.78
56142;BME280;42018;48.588;10.836;2023-09-08T12:51:38;96977.13;;;30.30;38.82
56142;BME280;42018;48.588;10.836;2023-09-08T12:54:24;96977.13;;;30.34;38.25
56142;BME280;42018;48.588;10.836;2023-09-08T12:57:09;96963.38;;;30.05;38.78
56142;BME280;42018;48.588;10.836;2023-09-08T12:59:55;96974.78;;;30.18;38.98
56142;BME280;42018;48.588;10.836;2023-09-08T13:02:40;96974.00;;;30.35;39.13
56142;BME280;42018;48.588;10.836;2023-09-08T13:05:26;96970.09;;;30.72;39.15
56142;BME280;42018;48.588;10.836;2023-09-08T13:08:13;96964.22;;;30.84;37.44
56142;BME280;42018;48.588;10.836;2023-09-08T13:11:00;96962.31;;;30.52;37.75
56142;BME280;42018;48.588;10.836;2023-09-08T13:13:45;96966.97;;;30.59;38.21
56142;BME280;42018;48.588;10.836;2023-09-08T13:16:31;96962.28;;;30.67;37.82
56142;BME280;42018;48.588;10.836;2023-09-08T13:19:16;96963.84;;;30.57;39.69
56142;BME280;42018;48.588;10.836;2023-09-08T13:22:01;96961.50;;;30.59;40.19
56142;BME280;42018;48.588;10.836;2023-09-08T13:24:47;96964.16;;;30.05;38.69
56142;BME280;42018;48.588;10.836;2023-09-08T13:27:32;96953.69;;;30.47;38.75
56142;BME280;42018;48.588;10.836;2023-09-08T13:30:17;96946.66;;;30.71;39.71
56142;BME280;42018;48.588;10.836;2023-09-08T13:33:17;96945.88;;;30.67;38.80
56142;BME280;42018;48.588;10.836;2023-09-08T13:36:25;96947.44;;;30.46;38.73
56142;BME280;42018;48.588;10.836;2023-09-08T13:39:11;96941.56;;;30.73;38.87
56142;BME280;42018;48.588;10.836;2023-09-08T13:42:00;96941.19;;;30.64;37.54
56142;BME280;42018;48.588;10.836;2023-09-08T13:44:46;96934.13;;;30.84;39.02
56142;BME280;42018;48.588;10.836;2023-09-08T13:47:47;96943.16;;;30.56;38.72
56142;BME280;42018;48.588;10.836;2023-09-08T13:50:32;96927.13;;;30.80;39.44
56142;BME280;42018;48.588;10.836;2023-09-08T13:53:18;96931.38;;;30.95;38.31
56142;BME280;42018;48.588;10.836;2023-09-08T13:56:06;96932.22;;;30.49;38.82
56142;BME280;42018;48.588;10.836;2023-09-08T13:58:51;96932.19;;;30.88;38.56
56142;BME280;42018;48.588;10.836;2023-09-08T14:01:37;96930.56;;;29.94;38.76
56142;BME280;42018;48.588;10.836;2023-09-08T14:04:23;96930.59;;;30.16;39.78
56142;BME280;42018;48.588;10.836;2023-09-08T14:07:09;96929.50;;;30.42;39.09
56142;BME280;42018;48.588;10.836;2023-09-08T14:09:54;96921.66;;;30.26;39.24
56142;BME280;42018;48.588;10.836;2023-09-08T14:12:40;96925.94;;;30.48;39.69
56142;BME280;42018;48.588;10.836;2023-09-08T14:15:25;96926.25;;;29.72;39.53
56142;BME280;42018;48.588;10.836;2023-09-08T14:18:10;96921.19;;;29.85;40.31
56142;BME280;42018;48.588;10.836;2023-09-08T14:20:56;96909.50;;;30.05;39.39
56142;BME280;42018;48.588;10.836;2023-09-08T14:23:41;96910.72;;;30.19;40.02
56142;BME280;42018;48.588;10.836;2023-09-08T14:26:27;96913.06;;;30.27;39.27
56142;BME280;42018;48.588;10.836;2023-09-08T14:29:12;96908.72;;;30.01;39.30
56142;BME280;42018;48.588;10.836;2023-09-08T14:31:58;96915.34;;;29.75;40.45
56142;BME280;42018;48.588;10.836;2023-09-08T14:34:43;96912.63;;;29.97;41.04
56142;BME280;42018;48.588;10.836;2023-09-08T14:37:28;96911.44;;;29.94;40.91
56142;BME280;42018;48.588;10.836;2023-09-08T14:40:14;96912.22;;;29.84;41.05
56142;BME280;42018;48.588;10.836;2023-09-08T14:43:00;96911.81;;;29.68;41.23
56142;BME280;42018;48.588;10.836;2023-09-08T14:45:45;96906.63;;;29.45;40.85
56142;BME280;42018;48.588;10.836;2023-09-08T14:48:30;96914.81;;;29.41;41.77
56142;BME280;42018;48.588;10.836;2023-09-08T14:51:16;96906.88;;;29.07;41.96
56142;BME280;42018;48.588;10.836;2023-09-08T14:54:02;96907.63;;;29.04;41.70
56142;BME280;42018;48.588;10.836;2023-09-08T14:56:47;96911.91;;;29.02;42.17
56142;BME280;42018;48.588;10.836;2023-09-08T14:59:32;96911.44;;;28.89;42.00
56142;BME280;42018;48.588;10.836;2023-09-08T15:02:18;96907.91;;;28.88;42.45
56142;BME280;42018;48.588;10.836;2023-09-08T15:05:03;96907.88;;;28.85;43.16
56142;BME280;42018;48.588;10.836;2023-09-08T15:07:48;96903.97;;;28.79;43.29
56142;BME280;42018;48.588;10.836;2023-09-08T15:10:34;96905.97;;;28.89;43.17
56142;BME280;42018;48.588;10.836;2023-09-08T15:13:20;96909.47;;;28.86;42.56
56142;BME280;42018;48.588;10.836;2023-09-08T15:16:05;96913.31;;;28.85;42.04
56142;BME280;42018;48.588;10.836;2023-09-08T15:18:50;96920.22;;;28.64;42.80
56142;BME280;42018;48.588;10.836;2023-09-08T15:21:36;96916.28;;;28.58;43.63
56142;BME280;42018;48.588;10.836;2023-09-08T15:24:21;96914.53;;;28.36;43.53
56142;BME280;42018;48.588;10.836;2023-09-08T15:27:06;96905.19;;;28.37;43.59
56142;BME280;42018;48.588;10.836;2023-09-08T15:29:55;96907.41;;;28.21;44.16
56142;BME280;42018;48.588;10.836;2023-09-08T15:32:40;96905.06;;;28.19;44.70
56142;BME280;42018;48.588;10.836;2023-09-08T15:35:26;96910.34;;;28.01;44.34
56142;BME280;42018;48.588;10.836;2023-09-08T15:38:11;96907.94;;;27.96;45.24
56142;BME280;42018;48.588;10.836;2023-09-08T15:43:52;96914.63;;;28.02;44.76
56142;BME280;42018;48.588;10.836;2023-09-08T15:46:37;96904.66;;;27.76;44.67
56142;BME280;42018;48.588;10.836;2023-09-08T15:49:23;96905.81;;;27.75;45.26
56142;BME280;42018;48.588;10.836;2023-09-08T15:52:08;96901.97;;;27.80;45.60
56142;BME280;42018;48.588;10.836;2023-09-08T15:54:53;96903.91;;;27.79;46.08
56142;BME280;42018;48.588;10.836;2023-09-08T15:57:39;96905.34;;;27.69;46.07
56142;BME280;42018;48.588;10.836;2023-09-08T16:00:24;96904.59;;;27.73;46.41
56142;BME280;42018;48.588;10.836;2023-09-08T16:03:10;96908.34;;;27.57;46.04
56142;BME280;42018;48.588;10.836;2023-09-08T16:05:55;96904.38;;;27.51;46.05
56142;BME280;42018;48.588;10.836;2023-09-08T16:08:41;96903.94;;;27.49;46.38
56142;BME280;42018;48.588;10.836;2023-09-08T16:11:26;96898.94;;;27.51;46.45
56142;BME280;42018;48.588;10.836;2023-09-08T16:14:11;96906.06;;;27.29;46.60
56142;BME280;42018;48.588;10.836;2023-09-08T16:16:57;96897.44;;;27.24;46.59
56142;BME280;42018;48.588;10.836;2023-09-08T16:19:42;96901.19;;;27.12;47.23
56142;BME280;42018;48.588;10.836;2023-09-08T16:22:27;96900.81;;;27.13;46.85
56142;BME280;42018;48.588;10.836;2023-09-08T16:25:13;96901.31;;;27.23;47.39
56142;BME280;42018;48.588;10.836;2023-09-08T16:27:58;96896.63;;;27.19;47.56
56142;BME280;42018;48.588;10.836;2023-09-08T16:30:44;96901.97;;;27.12;47.29
56142;BME280;42018;48.588;10.836;2023-09-08T16:33:29;96903.81;;;27.08;47.92
56142;BME280;42018;48.588;10.836;2023-09-08T16:36:14;96901.41;;;27.03;48.00
56142;BME280;42018;48.588;10.836;2023-09-08T16:39:00;96904.41;;;26.94;48.21
56142;BME280;42018;48.588;10.836;2023-09-08T16:41:45;96901.66;;;26.91;48.62
56142;BME280;42018;48.588;10.836;2023-09-08T16:44:30;96893.44;;;26.87;49.06
56142;BME280;42018;48.588;10.836;2023-09-08T16:47:16;96903.44;;;26.80;48.86
56142;BME280;42018;48.588;10.836;2023-09-08T16:50:03;96899.53;;;26.77;49.13
56142;BME280;42018;48.588;10.836;2023-09-08T16:52:50;96907.63;;;26.73;49.25
56142;BME280;42018;48.588;10.836;2023-09-08T16:55:35;96912.22;;;26.69;49.87